Time;durP1;ratioP1;P1;durP2;ratioP2;P2;SDS_P1;SDS_P2;PMS_P1;PMS_P2;Temp;Humidity;BMP_temperature;BMP_pressure;BME280_temperature;BME280_humidity;BME280_pressure;Samples;Min_cycle;Max_cycle;Signal;HPM_P1;HPM_P2
2022/09/13 00:00:03;;;;;;;9.07;6.00;;;;;;;;;;6261633;28;20427;-78
2022/09/13 00:03:03;;;;;;;2.50;2.03;;;;;;;;;;6260602;28;20062;-78
2022/09/13 00:06:14;;;;;;;5.53;4.03;;;;;;;;;;6262253;28;20020;-78
2022/09/13 00:09:14;;;;;;;1.88;1.85;;;;;;;;;;6272278;28;20448;-78
2022/09/13 00:12:14;;;;;;;5.20;2.50;;;;;;;;;;6273613;28;20369;-78
2022/09/13 00:15:14;;;;;;;4.03;3.73;;;;;;;;;;6265019;28;20746;-78
2022/09/13 00:18:15;;;;;;;2.50;2.30;;;;;;;;;;6261655;28;20251;-79
2022/09/13 00:21:17;;;;;;;11.00;2.53;;;;;;;;;;6284777;28;20334;-79
2022/09/13 00:24:17;;;;;;;3.22;2.90;;;;;;;;;;6272299;28;20104;-79
2022/09/13 00:27:17;;;;;;;2.50;2.35;;;;;;;;;;6272223;28;20051;-79
2022/09/13 00:30:17;;;;;;;3.30;3.10;;;;;;;;;;6266847;28;20040;-78
2022/09/13 00:33:17;;;;;;;0.80;0.80;;;;;;;;;;6249193;28;20036;-78
2022/09/13 00:36:18;;;;;;;3.40;3.10;;;;;;;;;;6257533;28;20623;-79
2022/09/13 00:39:18;;;;;;;2.23;2.13;;;;;;;;;;6252942;28;20055;-78
2022/09/13 00:42:23;;;;;;;4.07;3.77;;;;;;;;;;6261851;28;20021;-79
2022/09/13 00:45:23;;;;;;;6.32;5.80;;;;;;;;;;6266756;28;20028;-79
2022/09/13 00:48:24;;;;;;;3.80;3.20;;;;;;;;;;6281552;28;20090;-79
2022/09/13 00:51:25;;;;;;;3.80;3.50;;;;;;;;;;6283140;28;20029;-79
2022/09/13 00:54:27;;;;;;;6.27;3.67;;;;;;;;;;6263450;28;20039;-78
2022/09/13 00:57:27;;;;;;;;;;;;;;;;;;6265544;28;20060;-78
2022/09/13 01:00:27;;;;;;;4.03;3.58;;;;;;;;;;6265223;28;20262;-78
2022/09/13 01:03:29;;;;;;;3.03;2.45;;;;;;;;;;6267348;28;20028;-79
2022/09/13 01:06:32;;;;;;;4.40;2.60;;;;;;;;;;6278386;28;20135;-79
2022/09/13 01:09:35;;;;;;;6.25;3.10;;;;;;;;;;6260050;28;20021;-78
2022/09/13 01:12:39;;;;;;;5.70;2.63;;;;;;;;;;6270164;28;20074;-78
2022/09/13 01:15:40;;;;;;;3.50;3.25;;;;;;;;;;6270148;28;20025;-78
2022/09/13 01:18:40;;;;;;;4.47;4.18;;;;;;;;;;6280943;28;20090;-78
2022/09/13 01:21:56;;;;;;;22.00;2.27;;;;;;;;;;6268094;28;20032;-78
2022/09/13 01:25:15;;;;;;;3.05;2.85;;;;;;;;;;6275457;28;20222;-78
2022/09/13 01:28:51;;;;;;;4.18;3.85;;;;;;;;;;6244637;28;20423;-78
2022/09/13 01:32:10;;;;;;;1.42;1.42;;;;;;;;;;6156228;28;20086;-78
2022/09/13 01:35:21;;;;;;;1.67;1.63;;;;;;;;;;6270241;28;20023;-78
2022/09/13 01:38:25;;;;;;;2.63;2.53;;;;;;;;;;6259794;28;20021;-78
2022/09/13 01:41:43;;;;;;;4.63;2.72;;;;;;;;;;6266092;28;20108;-78
2022/09/13 01:44:57;;;;;;;2.95;2.60;;;;;;;;;;6272511;28;20021;-78
2022/09/13 01:48:19;;;;;;;5.35;4.80;;;;;;;;;;6273546;28;20030;-78
2022/09/13 01:51:32;;;;;;;7.78;3.85;;;;;;;;;;6247291;28;21274;-78
2022/09/13 01:54:47;;;;;;;2.63;2.47;;;;;;;;;;6270219;28;20114;-78
2022/09/13 01:57:55;;;;;;;7.53;3.30;;;;;;;;;;6253035;28;20028;-78
2022/09/13 02:01:07;;;;;;;2.80;2.60;;;;;;;;;;6268007;28;20048;-78
2022/09/13 02:04:07;;;;;;;;;;;;;;;;;;6244857;28;20040;-78
2022/09/13 02:07:20;;;;;;;1.02;1.02;;;;;;;;;;6260520;28;19904;-78
2022/09/13 02:10:23;;;;;;;2.88;1.88;;;;;;;;;;6245657;28;20048;-78
2022/09/13 02:13:26;;;;;;;4.45;4.05;;;;;;;;;;6260150;28;20021;-78
2022/09/13 02:16:29;;;;;;;3.17;2.97;;;;;;;;;;6263003;28;20044;-78
2022/09/13 02:19:31;;;;;;;1.70;1.67;;;;;;;;;;6244092;28;20048;-78
2022/09/13 02:22:36;;;;;;;1.65;1.65;;;;;;;;;;6255091;28;20025;-78
2022/09/13 02:25:38;;;;;;;1.83;1.73;;;;;;;;;;6241184;28;20024;-78
2022/09/13 02:28:38;;;;;;;;;;;;;;;;;;6258163;28;20025;-78
2022/09/13 02:31:59;;;;;;;5.93;5.30;;;;;;;;;;6253400;28;19928;-78
2022/09/13 02:35:19;;;;;;;4.57;4.18;;;;;;;;;;6284000;28;20017;-79
2022/09/13 02:38:22;;;;;;;2.50;2.40;;;;;;;;;;6263154;28;20016;-77
2022/09/13 02:41:26;;;;;;;2.03;1.92;;;;;;;;;;6265716;28;20075;-77
2022/09/13 02:44:37;;;;;;;2.10;2.00;;;;;;;;;;6271520;28;20388;-77
2022/09/13 02:47:51;;;;;;;2.97;2.72;;;;;;;;;;6273228;28;20082;-77
2022/09/13 02:51:13;;;;;;;0.77;0.77;;;;;;;;;;6292853;28;20024;-77
2022/09/13 02:54:21;;;;;;;5.00;4.10;;;;;;;;;;6273272;28;20396;-78
2022/09/13 02:57:31;;;;;;;3.05;2.85;;;;;;;;;;6274613;28;20376;-78
2022/09/13 03:00:31;;;;;;;3.72;3.53;;;;;;;;;;6275260;28;20056;-77
2022/09/13 03:03:31;;;;;;;4.22;3.83;;;;;;;;;;6275731;28;20028;-78
2022/09/13 03:06:32;;;;;;;2.33;2.23;;;;;;;;;;6270071;28;20409;-78
2022/09/13 03:09:32;;;;;;;2.43;2.37;;;;;;;;;;6284000;28;20076;-78
2022/09/13 03:12:41;;;;;;;7.63;2.10;;;;;;;;;;6266440;28;20809;-78
2022/09/13 03:15:54;;;;;;;3.78;3.53;;;;;;;;;;6256050;28;20102;-78
2022/09/13 03:19:10;;;;;;;3.17;3.00;;;;;;;;;;6270420;28;20019;-78
2022/09/13 03:22:26;;;;;;;6.00;5.47;;;;;;;;;;6281917;28;20016;-78
2022/09/13 03:25:33;;;;;;;3.53;2.00;;;;;;;;;;6252890;28;20031;-78
2022/09/13 03:28:33;;;;;;;4.20;3.78;;;;;;;;;;6272152;28;20036;-77
2022/09/13 03:31:35;;;;;;;2.63;2.53;;;;;;;;;;6274993;28;20127;-78
2022/09/13 03:34:48;;;;;;;5.63;3.78;;;;;;;;;;6278723;28;20262;-78
2022/09/13 03:38:01;;;;;;;10.45;7.50;;;;;;;;;;6267821;28;20126;-77
2022/09/13 03:41:07;;;;;;;4.45;4.25;;;;;;;;;;6272609;28;20025;-78
2022/09/13 03:44:09;;;;;;;4.82;4.53;;;;;;;;;;6282054;28;20024;-78
2022/09/13 03:47:10;;;;;;;6.15;2.78;;;;;;;;;;6281819;28;20051;-78
2022/09/13 03:50:13;;;;;;;6.00;4.80;;;;;;;;;;6280420;28;20066;-78
2022/09/13 03:53:15;;;;;;;3.13;2.92;;;;;;;;;;6265774;28;20026;-78
2022/09/13 03:56:16;;;;;;;7.03;4.78;;;;;;;;;;6249648;28;20017;-78
2022/09/13 03:59:16;;;;;;;4.03;3.73;;;;;;;;;;6276041;28;20100;-77
2022/09/13 04:02:17;;;;;;;1.35;1.30;;;;;;;;;;6255351;28;20281;-77
2022/09/13 04:05:18;;;;;;;2.17;2.07;;;;;;;;;;6271576;28;20074;-78
2022/09/13 04:08:18;;;;;;;1.70;1.60;;;;;;;;;;6260861;28;20059;-79
2022/09/13 04:11:20;;;;;;;3.67;3.47;;;;;;;;;;6264065;28;20400;-78
2022/09/13 04:14:20;;;;;;;3.00;2.80;;;;;;;;;;6252463;28;20043;-79
2022/09/13 04:17:20;;;;;;;7.38;5.07;;;;;;;;;;6288151;28;20476;-79
2022/09/13 04:20:21;;;;;;;5.13;4.73;;;;;;;;;;6267773;28;20025;-79
2022/09/13 04:23:21;;;;;;;3.37;2.97;;;;;;;;;;6265267;28;20473;-79
2022/09/13 04:26:22;;;;;;;2.42;2.30;;;;;;;;;;6255173;28;20359;-79
2022/09/13 04:29:23;;;;;;;5.73;3.23;;;;;;;;;;6271962;28;20186;-79
2022/09/13 04:32:23;;;;;;;6.15;5.65;;;;;;;;;;6285339;28;20298;-79
2022/09/13 04:35:24;;;;;;;4.85;3.20;;;;;;;;;;6272237;28;20020;-79
2022/09/13 04:38:25;;;;;;;4.97;4.57;;;;;;;;;;6287260;28;20078;-79
2022/09/13 04:41:25;;;;;;;13.73;3.60;;;;;;;;;;6280866;28;20503;-79
2022/09/13 04:44:26;;;;;;;5.55;5.15;;;;;;;;;;6265937;28;20021;-79
2022/09/13 04:47:26;;;;;;;7.33;6.63;;;;;;;;;;6260689;28;20053;-80
2022/09/13 04:50:26;;;;;;;31.88;6.32;;;;;;;;;;6276284;28;20017;-80
2022/09/13 04:53:26;;;;;;;2.83;2.63;;;;;;;;;;6275985;28;20032;-81
2022/09/13 04:56:26;;;;;;;5.20;4.20;;;;;;;;;;6272127;28;20049;-80
2022/09/13 04:59:27;;;;;;;5.82;4.30;;;;;;;;;;6257168;28;20664;-80
2022/09/13 05:02:27;;;;;;;6.87;5.37;;;;;;;;;;6272562;28;20029;-80
2022/09/13 05:05:31;;;;;;;3.97;3.77;;;;;;;;;;6267034;28;20024;-80
2022/09/13 05:08:31;;;;;;;5.85;5.35;;;;;;;;;;6279018;28;20024;-80
2022/09/13 05:11:31;;;;;;;7.22;5.60;;;;;;;;;;6272486;28;20778;-81
2022/09/13 05:14:32;;;;;;;2.50;2.30;;;;;;;;;;6266598;28;20053;-81
2022/09/13 05:17:32;;;;;;;3.65;3.33;;;;;;;;;;6284694;28;20502;-81
2022/09/13 05:20:32;;;;;;;2.90;2.70;;;;;;;;;;6256236;28;20049;-81
2022/09/13 05:23:32;;;;;;;5.40;2.03;;;;;;;;;;6271020;28;20040;-81
2022/09/13 05:26:32;;;;;;;4.43;4.00;;;;;;;;;;6254484;28;20516;-81
2022/09/13 05:29:33;;;;;;;3.50;2.63;;;;;;;;;;6264706;28;20017;-81
2022/09/13 05:32:33;;;;;;;4.76;4.38;;;;;;;;;;6266135;28;20481;-80
2022/09/13 05:35:33;;;;;;;3.92;3.62;;;;;;;;;;6281390;28;20013;-80
2022/09/13 05:38:33;;;;;;;5.80;4.95;;;;;;;;;;6253338;28;20024;-80
2022/09/13 05:41:33;;;;;;;5.37;4.93;;;;;;;;;;6262152;28;20487;-80
2022/09/13 05:44:34;;;;;;;3.50;3.30;;;;;;;;;;6245038;28;20024;-80
2022/09/13 05:47:34;;;;;;;18.90;7.00;;;;;;;;;;6260192;28;20025;-80
2022/09/13 05:50:37;;;;;;;5.50;4.68;;;;;;;;;;6243180;28;20333;-80
2022/09/13 05:53:38;;;;;;;1.85;1.75;;;;;;;;;;6255139;28;20554;-80
2022/09/13 05:56:39;;;;;;;8.50;6.77;;;;;;;;;;6260876;28;20048;-80
2022/09/13 05:59:39;;;;;;;5.50;4.82;;;;;;;;;;6266776;28;20485;-80
2022/09/13 06:02:40;;;;;;;4.13;2.67;;;;;;;;;;6268692;28;20104;-81
2022/09/13 06:05:40;;;;;;;3.47;2.20;;;;;;;;;;6270623;28;20027;-81
2022/09/13 06:08:40;;;;;;;14.60;6.65;;;;;;;;;;6266426;28;20361;-81
2022/09/13 06:11:40;;;;;;;5.90;5.33;;;;;;;;;;6271895;28;20060;-80
2022/09/13 06:14:41;;;;;;;13.73;4.77;;;;;;;;;;6252984;28;20017;-80
2022/09/13 06:17:41;;;;;;;10.57;4.07;;;;;;;;;;6279582;28;20017;-80
2022/09/13 06:20:41;;;;;;;14.17;6.37;;;;;;;;;;6271027;28;20111;-80
2022/09/13 06:23:41;;;;;;;3.67;3.38;;;;;;;;;;6262842;28;20021;-80
2022/09/13 06:26:41;;;;;;;4.57;4.18;;;;;;;;;;6253252;28;20472;-80
2022/09/13 06:29:41;;;;;;;3.97;3.50;;;;;;;;;;6267691;28;20044;-79
2022/09/13 06:32:42;;;;;;;4.30;3.90;;;;;;;;;;6268026;28;20013;-79
2022/09/13 06:35:42;;;;;;;4.00;3.70;;;;;;;;;;6262309;28;20025;-79
2022/09/13 06:38:44;;;;;;;6.20;4.53;;;;;;;;;;6269632;28;20037;-79
2022/09/13 06:41:44;;;;;;;6.40;5.90;;;;;;;;;;6275379;28;20025;-79
2022/09/13 06:44:47;;;;;;;8.10;7.37;;;;;;;;;;6255824;28;20020;-79
2022/09/13 06:47:47;;;;;;;8.18;4.22;;;;;;;;;;6253542;28;20115;-79
2022/09/13 06:50:48;;;;;;;8.30;7.57;;;;;;;;;;6268099;28;20035;-78
2022/09/13 06:53:48;;;;;;;2.40;2.20;;;;;;;;;;6255332;28;20067;-77
2022/09/13 06:56:49;;;;;;;11.87;8.17;;;;;;;;;;6243350;28;20373;-78
2022/09/13 06:59:49;;;;;;;4.40;2.80;;;;;;;;;;6272055;28;20021;-78
2022/09/13 07:02:50;;;;;;;4.60;2.40;;;;;;;;;;6250958;28;20532;-78
2022/09/13 07:05:50;;;;;;;5.38;3.67;;;;;;;;;;6267722;28;20029;-78
2022/09/13 07:08:51;;;;;;;3.17;2.97;;;;;;;;;;6264339;28;20449;-78
2022/09/13 07:11:52;;;;;;;0.80;0.80;;;;;;;;;;6258393;28;20036;-78
2022/09/13 07:14:52;;;;;;;3.45;3.13;;;;;;;;;;6259354;28;20025;-79
2022/09/13 07:17:52;;;;;;;3.07;2.60;;;;;;;;;;6242404;28;20053;-78
2022/09/13 07:20:59;;;;;;;3.42;3.13;;;;;;;;;;6276715;28;20029;-79
2022/09/13 07:23:59;;;;;;;5.00;3.00;;;;;;;;;;6287650;28;20098;-79
2022/09/13 07:26:59;;;;;;;2.40;2.20;;;;;;;;;;6275261;28;20017;-79
2022/09/13 07:30:00;;;;;;;3.47;3.20;;;;;;;;;;6279280;28;20051;-79
2022/09/13 07:33:00;;;;;;;3.20;2.60;;;;;;;;;;6278796;28;20105;-79
2022/09/13 07:36:02;;;;;;;3.00;2.40;;;;;;;;;;6266659;28;20045;-79
2022/09/13 07:39:02;;;;;;;2.88;2.47;;;;;;;;;;6264778;28;20435;-80
2022/09/13 07:42:03;;;;;;;4.53;3.30;;;;;;;;;;6252952;28;20447;-79
2022/09/13 07:45:03;;;;;;;2.60;1.93;;;;;;;;;;6247740;28;20132;-79
2022/09/13 07:48:03;;;;;;;1.77;1.40;;;;;;;;;;6265824;28;20539;-80
2022/09/13 07:51:11;;;;;;;1.93;1.83;;;;;;;;;;6265998;28;20029;-80
2022/09/13 07:54:13;;;;;;;3.95;1.85;;;;;;;;;;6266089;28;20025;-80
2022/09/13 07:57:13;;;;;;;3.60;2.17;;;;;;;;;;6268355;28;20420;-80
2022/09/13 08:07:29;;;;;;;25.20;3.85;;;;;;;;;;6263674;28;20095;-80
2022/09/13 08:10:29;;;;;;;5.83;3.17;;;;;;;;;;6258666;28;20415;-80
2022/09/13 08:13:31;;;;;;;1.67;1.65;;;;;;;;;;6247955;28;20025;-80
2022/09/13 08:16:32;;;;;;;1.63;1.55;;;;;;;;;;6272830;28;20009;-80
2022/09/13 08:19:32;;;;;;;2.13;2.03;;;;;;;;;;6274595;28;20368;-80
2022/09/13 08:22:32;;;;;;;3.73;1.37;;;;;;;;;;6260956;28;20384;-80
2022/09/13 08:25:37;;;;;;;2.10;1.50;;;;;;;;;;6256535;28;20037;-80
2022/09/13 08:28:39;;;;;;;4.80;2.58;;;;;;;;;;6246706;28;20048;-80
2022/09/13 08:31:39;;;;;;;1.60;1.50;;;;;;;;;;6248820;28;20041;-80
2022/09/13 08:34:39;;;;;;;2.77;2.53;;;;;;;;;;6260056;28;20025;-80
2022/09/13 08:37:39;;;;;;;3.60;1.03;;;;;;;;;;6263702;28;20075;-80
2022/09/13 08:40:42;;;;;;;1.48;1.30;;;;;;;;;;6254609;28;20090;-81
2022/09/13 08:43:45;;;;;;;2.90;2.20;;;;;;;;;;6247622;28;20024;-80
2022/09/13 08:46:45;;;;;;;2.33;2.20;;;;;;;;;;6254609;28;20032;-80
2022/09/13 08:49:48;;;;;;;1.42;1.42;;;;;;;;;;6265883;28;20393;-80
2022/09/13 08:53:15;;;;;;;4.05;3.10;;;;;;;;;;6267432;28;20014;-81
2022/09/13 08:56:21;;;;;;;4.20;1.25;;;;;;;;;;6261383;28;20328;-80
2022/09/13 08:59:25;;;;;;;2.90;1.80;;;;;;;;;;6263234;28;20465;-80
2022/09/13 09:02:44;;;;;;;0.95;0.60;;;;;;;;;;6252371;28;20025;-80
2022/09/13 09:05:46;;;;;;;1.48;1.38;;;;;;;;;;6254491;28;20511;-80
2022/09/13 09:09:03;;;;;;;1.20;1.10;;;;;;;;;;6272887;28;20021;-80
2022/09/13 09:12:16;;;;;;;2.28;2.05;;;;;;;;;;6272346;28;20606;-80
2022/09/13 09:15:18;;;;;;;0.70;0.70;;;;;;;;;;6260419;28;20460;-80
2022/09/13 09:18:40;;;;;;;1.30;1.20;;;;;;;;;;6272147;28;20618;-81
2022/09/13 09:21:41;;;;;;;0.67;0.67;;;;;;;;;;6266582;28;20062;-80
2022/09/13 09:24:45;;;;;;;1.55;0.93;;;;;;;;;;6282614;28;20040;-80
2022/09/13 09:27:45;;;;;;;1.17;0.98;;;;;;;;;;6267413;28;20047;-80
2022/09/13 09:30:55;;;;;;;4.43;3.23;;;;;;;;;;6276530;28;20409;-80
2022/09/13 09:34:03;;;;;;;2.17;0.90;;;;;;;;;;6266921;28;20109;-80
2022/09/13 09:37:07;;;;;;;0.82;0.82;;;;;;;;;;6266090;28;20025;-80
2022/09/13 09:40:11;;;;;;;2.50;0.65;;;;;;;;;;6268987;28;20028;-80
2022/09/13 09:43:16;;;;;;;0.20;0.20;;;;;;;;;;6259378;28;20431;-80
2022/09/13 09:46:20;;;;;;;1.23;1.13;;;;;;;;;;6236915;28;20017;-80
2022/09/13 09:52:52;;;;;;;1.90;1.10;;;;;;;;;;6269102;28;20024;-80
2022/09/13 09:56:01;;;;;;;5.75;1.40;;;;;;;;;;6249861;28;20019;-80
2022/09/13 09:59:02;;;;;;;6.22;2.03;;;;;;;;;;6260632;28;20437;-80
2022/09/13 10:02:14;;;;;;;1.70;1.60;;;;;;;;;;6261600;28;20021;-79
2022/09/13 10:05:18;;;;;;;2.03;1.85;;;;;;;;;;6262783;28;20508;-79
2022/09/13 10:08:25;;;;;;;0.95;0.95;;;;;;;;;;6266057;28;20074;-79
2022/09/13 10:11:39;;;;;;;0.32;0.32;;;;;;;;;;6261340;28;20108;-79
2022/09/13 10:14:44;;;;;;;1.88;1.13;;;;;;;;;;6254673;28;20480;-80
2022/09/13 10:18:24;;;;;;;0.17;0.17;;;;;;;;;;6267862;28;20094;-80
2022/09/13 10:21:25;;;;;;;1.90;0.50;;;;;;;;;;6135642;29;20047;-79
2022/09/13 10:24:26;;;;;;;0.30;0.30;;;;;;;;;;6128715;29;20554;-79
2022/09/13 10:27:29;;;;;;;1.77;1.67;;;;;;;;;;6266665;28;20033;-80
2022/09/13 10:30:32;;;;;;;0.65;0.65;;;;;;;;;;6248042;28;20140;-80
2022/09/13 10:33:34;;;;;;;7.13;1.17;;;;;;;;;;6242291;28;20051;-80
2022/09/13 10:36:35;;;;;;;1.65;0.63;;;;;;;;;;6261728;28;20021;-80
2022/09/13 10:39:36;;;;;;;0.47;0.47;;;;;;;;;;6244127;28;20067;-80
2022/09/13 10:42:36;;;;;;;2.80;1.53;;;;;;;;;;6238576;28;20017;-80
2022/09/13 10:45:37;;;;;;;3.20;1.80;;;;;;;;;;6244162;28;20084;-80
2022/09/13 10:48:54;;;;;;;1.83;1.73;;;;;;;;;;6246780;28;20098;-80
2022/09/13 10:51:54;;;;;;;1.15;1.02;;;;;;;;;;6267736;28;20021;-79
2022/09/13 10:54:55;;;;;;;1.38;1.00;;;;;;;;;;6250463;28;20051;-80
2022/09/13 10:58:01;;;;;;;0.28;0.28;;;;;;;;;;6258683;28;20369;-81
2022/09/13 11:01:05;;;;;;;1.30;1.20;;;;;;;;;;6255771;28;20021;-81
2022/09/13 11:04:24;;;;;;;1.00;1.00;;;;;;;;;;6252739;28;20123;-79
2022/09/13 11:07:24;;;;;;;0.70;0.70;;;;;;;;;;6262473;28;20113;-79
2022/09/13 11:10:33;;;;;;;4.07;2.40;;;;;;;;;;6248226;28;20033;-79
2022/09/13 11:13:37;;;;;;;0.68;0.68;;;;;;;;;;6262912;28;20026;-79
2022/09/13 11:16:49;;;;;;;0.98;0.90;;;;;;;;;;6255718;28;20041;-79
2022/09/13 11:20:08;;;;;;;3.60;1.75;;;;;;;;;;6271427;28;20063;-79
2022/09/13 11:23:26;;;;;;;1.23;1.05;;;;;;;;;;6259843;28;20079;-79
2022/09/13 11:26:45;;;;;;;0.50;0.50;;;;;;;;;;6265007;28;20029;-79
2022/09/13 11:29:48;;;;;;;1.02;1.02;;;;;;;;;;6262608;28;20049;-79
2022/09/13 11:32:57;;;;;;;0.32;0.32;;;;;;;;;;6266553;28;20426;-79
2022/09/13 11:36:21;;;;;;;0.88;0.88;;;;;;;;;;6257002;28;20016;-80
2022/09/13 11:39:35;;;;;;;0.73;0.73;;;;;;;;;;6244361;28;20026;-79
2022/09/13 11:42:38;;;;;;;0.40;0.40;;;;;;;;;;6251714;28;20024;-80
2022/09/13 11:45:59;;;;;;;1.15;1.15;;;;;;;;;;6264902;28;20124;-79
2022/09/13 11:49:22;;;;;;;1.23;1.17;;;;;;;;;;6238885;28;20113;-79
2022/09/13 11:52:29;;;;;;;0.47;0.47;;;;;;;;;;6259448;28;20039;-79
2022/09/13 11:55:29;;;;;;;0.57;0.57;;;;;;;;;;6272374;28;20103;-79
2022/09/13 11:58:41;;;;;;;2.57;1.23;;;;;;;;;;6279046;28;20129;-79
2022/09/13 12:01:46;;;;;;;0.45;0.45;;;;;;;;;;6275517;28;20035;-79
2022/09/13 12:04:46;;;;;;;0.82;0.50;;;;;;;;;;6271402;28;20025;-79
2022/09/13 12:07:52;;;;;;;3.83;1.80;;;;;;;;;;6256250;28;20061;-79
2022/09/13 12:10:56;;;;;;;0.63;0.63;;;;;;;;;;6264009;28;20025;-79
2022/09/13 12:13:59;;;;;;;2.33;1.73;;;;;;;;;;6270094;28;20017;-80
2022/09/13 12:17:03;;;;;;;0.90;0.85;;;;;;;;;;6267966;28;20397;-79
2022/09/13 12:20:04;;;;;;;1.40;1.08;;;;;;;;;;6243025;28;20017;-79
2022/09/13 12:23:10;;;;;;;1.08;0.90;;;;;;;;;;6250434;28;20021;-79
2022/09/13 12:26:17;;;;;;;3.20;1.42;;;;;;;;;;6269706;28;20342;-79
2022/09/13 12:29:35;;;;;;;0.80;0.80;;;;;;;;;;6267045;28;20052;-79
2022/09/13 12:32:37;;;;;;;0.47;0.47;;;;;;;;;;6267762;28;20060;-79
2022/09/13 12:35:57;;;;;;;2.00;1.83;;;;;;;;;;6245935;28;20385;-79
2022/09/13 12:39:06;;;;;;;3.30;2.83;;;;;;;;;;6263496;28;20524;-79
2022/09/13 12:42:25;;;;;;;0.50;0.50;;;;;;;;;;6266046;28;20082;-79
2022/09/13 12:45:34;;;;;;;2.05;1.77;;;;;;;;;;6265320;28;20436;-79
2022/09/13 12:48:46;;;;;;;0.93;0.93;;;;;;;;;;6264605;28;20505;-79
2022/09/13 12:52:14;;;;;;;1.33;1.23;;;;;;;;;;6262827;28;20012;-79
2022/09/13 12:55:34;;;;;;;1.23;1.05;;;;;;;;;;6237921;28;20021;-79
2022/09/13 12:58:34;;;;;;;0.65;0.65;;;;;;;;;;6259818;28;20026;-79
2022/09/13 13:01:34;;;;;;;0.63;0.50;;;;;;;;;;6266816;28;20036;-79
2022/09/13 13:04:35;;;;;;;0.40;0.40;;;;;;;;;;6253622;28;20053;-79
2022/09/13 13:07:37;;;;;;;0.57;0.55;;;;;;;;;;6261020;28;20025;-79
2022/09/13 13:10:37;;;;;;;0.57;0.57;;;;;;;;;;6252334;28;20028;-79
2022/09/13 13:13:38;;;;;;;0.13;0.13;;;;;;;;;;6241331;28;20024;-79
2022/09/13 13:16:47;;;;;;;;;;;;;;;;;;6240623;28;20021;-79
2022/09/13 13:19:47;;;;;;;2.38;1.45;;;;;;;;;;6264062;28;19963;-79
2022/09/13 13:22:48;;;;;;;0.40;0.40;;;;;;;;;;6240383;28;20428;-79
2022/09/13 13:25:59;;;;;;;1.20;0.85;;;;;;;;;;6259578;28;20411;-79
2022/09/13 13:28:59;;;;;;;;;;;;;;;;;;6232672;28;20376;-79
2022/09/13 13:32:01;;;;;;;5.47;0.97;;;;;;;;;;6262238;28;19989;-78
2022/09/13 13:35:22;;;;;;;0.60;0.60;;;;;;;;;;6269947;28;20029;-78
2022/09/13 13:38:22;;;;;;;1.63;1.17;;;;;;;;;;6271785;28;20397;-78
2022/09/13 13:41:34;;;;;;;0.90;0.90;;;;;;;;;;6272452;28;20049;-79
2022/09/13 13:44:35;;;;;;;0.90;0.80;;;;;;;;;;6250622;28;20046;-79
2022/09/13 13:47:38;;;;;;;0.73;0.73;;;;;;;;;;6270640;28;20090;-79
2022/09/13 13:51:11;;;;;;;1.83;1.73;;;;;;;;;;6248258;28;20071;-79
2022/09/13 13:54:28;;;;;;;0.90;0.90;;;;;;;;;;6239517;28;20043;-78
2022/09/13 13:57:31;;;;;;;0.43;0.43;;;;;;;;;;6247080;28;20028;-78
2022/09/13 14:00:32;;;;;;;1.27;1.17;;;;;;;;;;6260833;28;20067;-78
2022/09/13 14:03:48;;;;;;;1.00;0.85;;;;;;;;;;6259837;28;20392;-79
2022/09/13 14:07:08;;;;;;;0.38;0.38;;;;;;;;;;6272809;28;20098;-78
2022/09/13 14:10:41;;;;;;;0.75;0.73;;;;;;;;;;6248006;28;20028;-78
2022/09/13 14:13:50;;;;;;;1.30;1.17;;;;;;;;;;6201840;28;20037;-78
2022/09/13 14:16:57;;;;;;;0.63;0.63;;;;;;;;;;6249710;28;20013;-78
2022/09/13 14:20:03;;;;;;;1.33;1.02;;;;;;;;;;6269686;28;20028;-78
2022/09/13 14:23:17;;;;;;;0.75;0.75;;;;;;;;;;6280748;28;20017;-78
2022/09/13 14:26:18;;;;;;;1.02;1.02;;;;;;;;;;6270784;28;20013;-78
2022/09/13 14:29:19;;;;;;;2.07;0.97;;;;;;;;;;6272631;28;20074;-79
2022/09/13 14:32:21;;;;;;;0.25;0.25;;;;;;;;;;6274160;28;20112;-78
2022/09/13 14:35:27;;;;;;;1.70;1.60;;;;;;;;;;6256629;28;20434;-78
2022/09/13 14:38:35;;;;;;;2.47;2.15;;;;;;;;;;6271324;28;20025;-78
2022/09/13 14:41:36;;;;;;;1.15;0.77;;;;;;;;;;6273622;28;20036;-78
2022/09/13 14:44:36;;;;;;;;;;;;;;;;;;6257257;28;20016;-79
2022/09/13 14:47:46;;;;;;;4.38;2.08;;;;;;;;;;6276023;28;19912;-78
2022/09/13 14:50:46;;;;;;;1.95;1.58;;;;;;;;;;6282516;28;20020;-78
2022/09/13 14:53:49;;;;;;;2.50;1.05;;;;;;;;;;6283655;28;20025;-78
2022/09/13 14:56:52;;;;;;;1.27;1.13;;;;;;;;;;6257218;28;20009;-79
2022/09/13 14:59:54;;;;;;;0.60;0.60;;;;;;;;;;6250905;28;20021;-78
2022/09/13 15:02:57;;;;;;;2.92;2.60;;;;;;;;;;6248530;28;20020;-78
2022/09/13 15:05:59;;;;;;;1.95;0.98;;;;;;;;;;6271662;28;20327;-78
2022/09/13 15:08:59;;;;;;;;;;;;;;;;;;6266475;28;20115;-78
2022/09/13 15:12:02;;;;;;;1.27;1.17;;;;;;;;;;6265465;28;19991;-78
2022/09/13 15:15:18;;;;;;;1.23;1.05;;;;;;;;;;6252584;28;20039;-79
2022/09/13 15:18:19;;;;;;;15.27;7.45;;;;;;;;;;6245981;28;20123;-78
2022/09/13 15:21:19;;;;;;;1.83;1.70;;;;;;;;;;6265595;28;20021;-78
2022/09/13 15:24:28;;;;;;;12.27;5.07;;;;;;;;;;6256295;28;20016;-78
2022/09/13 15:27:30;;;;;;;12.63;6.95;;;;;;;;;;6274806;28;20028;-78
2022/09/13 15:30:36;;;;;;;5.25;4.85;;;;;;;;;;6243719;28;20037;-78
2022/09/13 15:33:37;;;;;;;1.60;1.50;;;;;;;;;;6246402;28;20033;-77
2022/09/13 15:36:37;;;;;;;5.43;4.27;;;;;;;;;;6240428;28;20060;-77
2022/09/13 15:40:03;;;;;;;7.53;4.13;;;;;;;;;;6250746;28;20420;-77
2022/09/13 15:43:04;;;;;;;1.13;1.13;;;;;;;;;;6223867;28;20045;-78
2022/09/13 15:46:04;;;;;;;11.20;2.97;;;;;;;;;;6237424;28;20045;-78
2022/09/13 15:49:05;;;;;;;8.97;5.47;;;;;;;;;;6238960;28;20662;-78
2022/09/13 15:52:06;;;;;;;13.43;7.97;;;;;;;;;;6249402;28;20079;-78
2022/09/13 15:55:09;;;;;;;17.27;13.30;;;;;;;;;;6246369;28;20083;-78
2022/09/13 15:58:10;;;;;;;28.17;16.17;;;;;;;;;;6248124;28;20074;-78
2022/09/13 16:01:14;;;;;;;27.30;7.88;;;;;;;;;;6245893;28;20405;-78
2022/09/13 16:04:14;;;;;;;3.90;3.58;;;;;;;;;;6241598;28;20155;-78
2022/09/13 16:07:14;;;;;;;2.80;2.60;;;;;;;;;;6240112;28;20067;-78
2022/09/13 16:10:17;;;;;;;13.93;7.13;;;;;;;;;;6248086;28;20009;-77
2022/09/13 16:13:18;;;;;;;15.98;8.82;;;;;;;;;;6257528;28;20482;-78
2022/09/13 16:16:19;;;;;;;7.73;5.07;;;;;;;;;;6246138;28;20022;-78
2022/09/13 16:19:20;;;;;;;8.93;5.28;;;;;;;;;;6243867;28;20013;-78
2022/09/13 16:22:21;;;;;;;9.68;4.00;;;;;;;;;;6235774;28;20045;-78
2022/09/13 16:25:21;;;;;;;3.92;3.63;;;;;;;;;;6238511;28;20764;-78
2022/09/13 16:28:22;;;;;;;6.75;1.85;;;;;;;;;;6238718;28;20021;-78
2022/09/13 16:31:22;;;;;;;1.63;1.53;;;;;;;;;;6237633;28;20165;-78
2022/09/13 16:34:22;;;;;;;1.95;1.80;;;;;;;;;;6238598;28;20021;-78
2022/09/13 16:37:23;;;;;;;1.20;1.10;;;;;;;;;;6247168;28;20021;-78
2022/09/13 16:40:23;;;;;;;1.27;1.03;;;;;;;;;;6255738;28;20032;-79
2022/09/13 16:43:23;;;;;;;2.00;1.50;;;;;;;;;;6258810;28;20041;-78
2022/09/13 16:46:24;;;;;;;2.17;1.60;;;;;;;;;;6242161;28;20028;-78
2022/09/13 16:49:24;;;;;;;0.93;0.93;;;;;;;;;;6246557;28;20100;-79
2022/09/13 16:52:25;;;;;;;1.47;1.37;;;;;;;;;;6235913;28;20359;-78
2022/09/13 16:55:26;;;;;;;2.83;1.57;;;;;;;;;;6247347;28;20021;-78
2022/09/13 16:58:26;;;;;;;4.38;2.00;;;;;;;;;;6234941;28;20389;-78
2022/09/13 17:01:28;;;;;;;3.17;2.17;;;;;;;;;;6232833;28;20033;-78
2022/09/13 17:04:28;;;;;;;;;;;;;;;;;;6237975;28;20049;-77
2022/09/13 17:07:28;;;;;;;2.47;2.28;;;;;;;;;;6242461;28;19918;-77
2022/09/13 17:10:29;;;;;;;3.23;2.13;;;;;;;;;;6236944;28;20083;-78
2022/09/13 17:13:29;;;;;;;4.60;1.57;;;;;;;;;;6238706;28;20048;-77
2022/09/13 17:16:29;;;;;;;5.20;1.43;;;;;;;;;;6246352;28;20028;-78
2022/09/13 17:19:32;;;;;;;2.85;2.15;;;;;;;;;;6252647;28;20032;-79
2022/09/13 17:22:33;;;;;;;0.93;0.93;;;;;;;;;;6247396;28;20113;-78
2022/09/13 17:25:33;;;;;;;0.33;0.33;;;;;;;;;;6260442;28;20097;-78
2022/09/13 17:28:35;;;;;;;0.40;0.30;;;;;;;;;;6242597;28;20504;-78
2022/09/13 17:31:37;;;;;;;0.95;0.95;;;;;;;;;;6267551;28;20045;-77
2022/09/13 17:34:38;;;;;;;1.17;0.80;;;;;;;;;;6270453;28;20017;-77
2022/09/13 17:37:38;;;;;;;3.90;1.00;;;;;;;;;;6266023;28;20044;-78
2022/09/13 17:40:38;;;;;;;3.30;3.07;;;;;;;;;;6264891;28;20514;-78
2022/09/13 17:43:39;;;;;;;1.63;1.52;;;;;;;;;;6255705;28;20116;-79
2022/09/13 17:46:39;;;;;;;2.83;2.37;;;;;;;;;;6256867;28;20032;-78
2022/09/13 17:49:40;;;;;;;1.63;1.53;;;;;;;;;;6257801;28;20048;-78
2022/09/13 17:52:40;;;;;;;0.97;0.97;;;;;;;;;;6249175;28;20021;-78
2022/09/13 17:55:47;;;;;;;1.43;1.37;;;;;;;;;;6264233;28;20146;-78
2022/09/13 17:58:48;;;;;;;1.60;1.45;;;;;;;;;;6271218;28;20502;-78
2022/09/13 18:01:50;;;;;;;0.97;0.97;;;;;;;;;;6269723;28;20021;-78
2022/09/13 18:04:50;;;;;;;1.20;1.20;;;;;;;;;;6257418;28;20024;-78
2022/09/13 18:07:51;;;;;;;6.33;3.90;;;;;;;;;;6255842;28;20021;-77
2022/09/13 18:10:51;;;;;;;1.50;1.40;;;;;;;;;;6251017;28;20063;-78
2022/09/13 18:13:52;;;;;;;4.20;3.83;;;;;;;;;;6275114;28;20024;-78
2022/09/13 18:16:54;;;;;;;9.43;2.43;;;;;;;;;;6253257;28;20036;-79
2022/09/13 18:19:55;;;;;;;2.83;1.52;;;;;;;;;;6262002;28;20497;-78
2022/09/13 18:22:56;;;;;;;1.23;0.85;;;;;;;;;;6275935;28;20028;-78
2022/09/13 18:25:57;;;;;;;9.80;2.03;;;;;;;;;;6249482;28;20021;-77
2022/09/13 18:29:00;;;;;;;0.73;0.70;;;;;;;;;;6263014;28;20024;-77
2022/09/13 18:32:00;;;;;;;2.22;2.05;;;;;;;;;;6271147;28;20065;-79
2022/09/13 18:35:01;;;;;;;0.77;0.30;;;;;;;;;;6252598;28;20135;-77
2022/09/13 18:38:01;;;;;;;1.50;1.27;;;;;;;;;;6242455;28;20045;-77